Terminal Aerodrome Forecast
Issued by NWS Cleveland, OH

Home | Current Version | Previous Version | Text Only | Print | Product List | Glossary On
Versions: 1 2 3 4 5 6 7 8 9 10 11 12 13 14 15 16 17 18
000
FTUS41 KCLE 241700
TAFMFD
TAF
KMFD 241720Z 2418/2518 09011KT P6SM SCT120
     FM242000 12011KT P6SM SCT120
     FM250600 14010KT P6SM SCT045 OVC120
     FM250900 14010KT P6SM BKN040 OVC100
      TEMPO 2509/2512 5SM -RA BR OVC040
     FM251400 16012KT 5SM -RA BR SCT012 OVC035
     FM251600 18014G22KT 3SM -RA BR OVC012=

USA.gov is the U.S. government's official web portal to all federal, state and local government web resources and services.